Terminal Aerodrome Forecast
Issued by NWS

Home | Current Version | Previous Version | Text Only | Print | Product List | Glossary On
Versions: 1 2 3 4 5 6 7 8 9 10 11 12 13 14 15 16
000
FTUS46 KSEW 050536
TAFCLM
TAF
KCLM 050536Z 0506/0606 26009KT P6SM SKC
     FM050900 VRB03KT P6SM SCT020 BKN060
      TEMPO 0510/0514 3SM BR BKN020 OVC060
     FM051900 33010KT P6SM SCT060=

USA.gov is the U.S. government's official web portal to all federal, state and local government web resources and services.